sensor_id;sensor_type;location;lat;lon;timestamp;P1;durP1;ratioP1;P2;durP2;ratioP2
8708;SDS011;4391;48.678;9.280;2023-03-31T00:01:05;7.30;;;1.43;;
8708;SDS011;4391;48.678;9.280;2023-03-31T00:03:31;5.30;;;1.20;;
8708;SDS011;4391;48.678;9.280;2023-03-31T00:06:04;7.00;;;1.30;;
8708;SDS011;4391;48.678;9.280;2023-03-31T00:08:31;5.50;;;1.50;;
8708;SDS011;4391;48.678;9.280;2023-03-31T00:11:00;5.72;;;1.30;;
8708;SDS011;4391;48.678;9.280;2023-03-31T00:13:29;5.77;;;1.17;;
8708;SDS011;4391;48.678;9.280;2023-03-31T00:15:56;5.57;;;0.90;;
8708;SDS011;4391;48.678;9.280;2023-03-31T00:18:24;8.13;;;1.60;;
8708;SDS011;4391;48.678;9.280;2023-03-31T00:20:51;6.55;;;1.40;;
8708;SDS011;4391;48.678;9.280;2023-03-31T00:23:20;4.22;;;1.20;;
8708;SDS011;4391;48.678;9.280;2023-03-31T00:25:51;7.23;;;1.30;;
8708;SDS011;4391;48.678;9.280;2023-03-31T00:28:19;4.80;;;1.20;;
8708;SDS011;4391;48.678;9.280;2023-03-31T00:30:46;7.43;;;1.40;;
8708;SDS011;4391;48.678;9.280;2023-03-31T00:33:13;11.25;;;1.40;;
8708;SDS011;4391;48.678;9.280;2023-03-31T00:35:40;6.95;;;1.25;;
8708;SDS011;4391;48.678;9.280;2023-03-31T00:38:07;5.50;;;1.17;;
8708;SDS011;4391;48.678;9.280;2023-03-31T00:40:42;7.50;;;1.35;;
8708;SDS011;4391;48.678;9.280;2023-03-31T00:43:12;5.53;;;1.10;;
8708;SDS011;4391;48.678;9.280;2023-03-31T00:45:52;7.50;;;1.20;;
8708;SDS011;4391;48.678;9.280;2023-03-31T00:48:20;8.10;;;1.40;;
8708;SDS011;4391;48.678;9.280;2023-03-31T00:50:48;7.10;;;1.50;;
8708;SDS011;4391;48.678;9.280;2023-03-31T00:53:19;4.75;;;1.30;;
8708;SDS011;4391;48.678;9.280;2023-03-31T00:55:52;7.28;;;2.00;;
8708;SDS011;4391;48.678;9.280;2023-03-31T00:58:20;5.43;;;1.27;;
8708;SDS011;4391;48.678;9.280;2023-03-31T01:00:52;5.03;;;1.30;;
8708;SDS011;4391;48.678;9.280;2023-03-31T01:03:20;6.20;;;1.33;;
8708;SDS011;4391;48.678;9.280;2023-03-31T01:05:48;8.35;;;1.48;;
8708;SDS011;4391;48.678;9.280;2023-03-31T01:08:18;5.10;;;1.58;;
8708;SDS011;4391;48.678;9.280;2023-03-31T01:10:52;6.53;;;1.77;;
8708;SDS011;4391;48.678;9.280;2023-03-31T01:13:21;8.73;;;1.35;;
8708;SDS011;4391;48.678;9.280;2023-03-31T01:15:50;5.43;;;1.40;;
8708;SDS011;4391;48.678;9.280;2023-03-31T01:18:17;6.90;;;1.92;;
8708;SDS011;4391;48.678;9.280;2023-03-31T01:20:50;12.18;;;1.77;;
8708;SDS011;4391;48.678;9.280;2023-03-31T01:26:54;11.55;;;1.88;;
8708;SDS011;4391;48.678;9.280;2023-03-31T01:29:36;9.07;;;1.27;;
8708;SDS011;4391;48.678;9.280;2023-03-31T01:35:32;9.88;;;1.63;;
8708;SDS011;4391;48.678;9.280;2023-03-31T01:40:57;4.53;;;1.05;;
8708;SDS011;4391;48.678;9.280;2023-03-31T01:43:41;6.70;;;1.80;;
8708;SDS011;4391;48.678;9.280;2023-03-31T01:46:15;6.97;;;1.73;;
8708;SDS011;4391;48.678;9.280;2023-03-31T01:48:50;11.73;;;1.50;;
8708;SDS011;4391;48.678;9.280;2023-03-31T01:51:26;7.70;;;1.35;;
8708;SDS011;4391;48.678;9.280;2023-03-31T01:54:00;6.50;;;1.20;;
8708;SDS011;4391;48.678;9.280;2023-03-31T01:56:36;8.53;;;2.03;;
8708;SDS011;4391;48.678;9.280;2023-03-31T01:59:07;4.95;;;1.40;;
8708;SDS011;4391;48.678;9.280;2023-03-31T02:01:40;7.93;;;1.20;;
8708;SDS011;4391;48.678;9.280;2023-03-31T02:04:13;12.93;;;1.38;;
8708;SDS011;4391;48.678;9.280;2023-03-31T02:06:45;6.30;;;1.27;;
8708;SDS011;4391;48.678;9.280;2023-03-31T02:09:21;5.40;;;1.63;;
8708;SDS011;4391;48.678;9.280;2023-03-31T02:11:52;6.22;;;1.70;;
8708;SDS011;4391;48.678;9.280;2023-03-31T02:14:22;6.72;;;1.95;;
8708;SDS011;4391;48.678;9.280;2023-03-31T02:16:52;5.18;;;1.30;;
8708;SDS011;4391;48.678;9.280;2023-03-31T02:19:24;10.30;;;1.77;;
8708;SDS011;4391;48.678;9.280;2023-03-31T02:21:53;7.10;;;1.50;;
8708;SDS011;4391;48.678;9.280;2023-03-31T02:24:22;4.82;;;1.30;;
8708;SDS011;4391;48.678;9.280;2023-03-31T02:26:54;4.38;;;1.30;;
8708;SDS011;4391;48.678;9.280;2023-03-31T02:29:26;7.32;;;1.73;;
8708;SDS011;4391;48.678;9.280;2023-03-31T02:31:55;5.65;;;1.80;;
8708;SDS011;4391;48.678;9.280;2023-03-31T02:34:25;4.43;;;1.30;;
8708;SDS011;4391;48.678;9.280;2023-03-31T02:36:52;6.60;;;1.60;;
8708;SDS011;4391;48.678;9.280;2023-03-31T02:39:20;5.00;;;1.27;;
8708;SDS011;4391;48.678;9.280;2023-03-31T02:41:51;7.07;;;1.55;;
8708;SDS011;4391;48.678;9.280;2023-03-31T02:44:19;6.53;;;1.42;;
8708;SDS011;4391;48.678;9.280;2023-03-31T02:46:46;4.97;;;1.70;;
8708;SDS011;4391;48.678;9.280;2023-03-31T02:49:14;5.47;;;1.50;;
8708;SDS011;4391;48.678;9.280;2023-03-31T02:51:46;6.93;;;1.60;;
8708;SDS011;4391;48.678;9.280;2023-03-31T02:57:24;6.78;;;1.73;;
8708;SDS011;4391;48.678;9.280;2023-03-31T03:00:15;7.40;;;1.83;;
8708;SDS011;4391;48.678;9.280;2023-03-31T03:02:52;6.13;;;2.00;;
8708;SDS011;4391;48.678;9.280;2023-03-31T03:05:31;4.20;;;1.67;;
8708;SDS011;4391;48.678;9.280;2023-03-31T03:08:14;5.88;;;1.75;;
8708;SDS011;4391;48.678;9.280;2023-03-31T03:10:54;8.05;;;1.48;;
8708;SDS011;4391;48.678;9.280;2023-03-31T03:13:27;5.73;;;1.83;;
8708;SDS011;4391;48.678;9.280;2023-03-31T03:16:02;5.43;;;1.50;;
8708;SDS011;4391;48.678;9.280;2023-03-31T03:18:33;7.43;;;1.90;;
8708;SDS011;4391;48.678;9.280;2023-03-31T03:21:00;8.18;;;2.33;;
8708;SDS011;4391;48.678;9.280;2023-03-31T03:23:27;9.15;;;2.00;;
8708;SDS011;4391;48.678;9.280;2023-03-31T03:25:55;6.40;;;1.97;;
8708;SDS011;4391;48.678;9.280;2023-03-31T03:28:22;5.75;;;1.65;;
8708;SDS011;4391;48.678;9.280;2023-03-31T03:30:49;7.15;;;1.80;;
8708;SDS011;4391;48.678;9.280;2023-03-31T03:33:17;5.55;;;2.10;;
8708;SDS011;4391;48.678;9.280;2023-03-31T03:35:43;6.50;;;1.75;;
8708;SDS011;4391;48.678;9.280;2023-03-31T03:38:10;5.90;;;1.87;;
8708;SDS011;4391;48.678;9.280;2023-03-31T03:40:37;9.50;;;1.83;;
8708;SDS011;4391;48.678;9.280;2023-03-31T03:43:04;6.20;;;1.73;;
8708;SDS011;4391;48.678;9.280;2023-03-31T03:45:31;10.48;;;1.63;;
8708;SDS011;4391;48.678;9.280;2023-03-31T03:47:58;5.88;;;2.10;;
8708;SDS011;4391;48.678;9.280;2023-03-31T03:50:26;7.70;;;2.10;;
8708;SDS011;4391;48.678;9.280;2023-03-31T03:52:53;7.22;;;2.03;;
8708;SDS011;4391;48.678;9.280;2023-03-31T03:55:19;5.63;;;1.60;;
8708;SDS011;4391;48.678;9.280;2023-03-31T03:57:47;5.40;;;1.52;;
8708;SDS011;4391;48.678;9.280;2023-03-31T04:00:14;11.13;;;2.30;;
8708;SDS011;4391;48.678;9.280;2023-03-31T04:02:41;7.87;;;2.10;;
8708;SDS011;4391;48.678;9.280;2023-03-31T04:05:08;6.95;;;1.92;;
8708;SDS011;4391;48.678;9.280;2023-03-31T04:07:36;7.63;;;2.75;;
8708;SDS011;4391;48.678;9.280;2023-03-31T04:10:03;7.20;;;2.00;;
8708;SDS011;4391;48.678;9.280;2023-03-31T04:12:32;6.70;;;2.10;;
8708;SDS011;4391;48.678;9.280;2023-03-31T04:14:59;10.57;;;2.20;;
8708;SDS011;4391;48.678;9.280;2023-03-31T04:17:26;7.78;;;2.15;;
8708;SDS011;4391;48.678;9.280;2023-03-31T04:19:58;8.60;;;2.20;;
8708;SDS011;4391;48.678;9.280;2023-03-31T04:22:28;12.48;;;2.53;;
8708;SDS011;4391;48.678;9.280;2023-03-31T04:25:01;12.02;;;2.40;;
8708;SDS011;4391;48.678;9.280;2023-03-31T04:27:28;8.90;;;2.27;;
8708;SDS011;4391;48.678;9.280;2023-03-31T04:29:55;8.45;;;2.30;;
8708;SDS011;4391;48.678;9.280;2023-03-31T04:32:21;11.25;;;2.55;;
8708;SDS011;4391;48.678;9.280;2023-03-31T04:34:48;8.93;;;2.38;;
8708;SDS011;4391;48.678;9.280;2023-03-31T04:37:15;10.73;;;2.60;;
8708;SDS011;4391;48.678;9.280;2023-03-31T04:39:42;9.97;;;2.30;;
8708;SDS011;4391;48.678;9.280;2023-03-31T04:42:12;6.75;;;2.28;;
8708;SDS011;4391;48.678;9.280;2023-03-31T04:44:39;10.70;;;2.42;;
8708;SDS011;4391;48.678;9.280;2023-03-31T04:47:05;7.40;;;2.33;;
8708;SDS011;4391;48.678;9.280;2023-03-31T04:49:32;10.25;;;2.70;;
8708;SDS011;4391;48.678;9.280;2023-03-31T04:52:00;9.10;;;3.30;;
8708;SDS011;4391;48.678;9.280;2023-03-31T04:54:27;10.35;;;2.60;;
8708;SDS011;4391;48.678;9.280;2023-03-31T04:56:53;9.00;;;2.72;;
8708;SDS011;4391;48.678;9.280;2023-03-31T04:59:22;12.77;;;2.78;;
8708;SDS011;4391;48.678;9.280;2023-03-31T05:01:48;6.43;;;2.22;;
8708;SDS011;4391;48.678;9.280;2023-03-31T05:04:15;8.50;;;2.47;;
8708;SDS011;4391;48.678;9.280;2023-03-31T05:06:42;7.97;;;2.45;;
8708;SDS011;4391;48.678;9.280;2023-03-31T05:09:09;7.50;;;2.75;;
8708;SDS011;4391;48.678;9.280;2023-03-31T05:11:36;5.82;;;2.08;;
8708;SDS011;4391;48.678;9.280;2023-03-31T05:14:03;9.20;;;2.58;;
8708;SDS011;4391;48.678;9.280;2023-03-31T05:16:31;6.73;;;2.33;;
8708;SDS011;4391;48.678;9.280;2023-03-31T05:18:58;10.45;;;2.60;;
8708;SDS011;4391;48.678;9.280;2023-03-31T05:21:25;11.35;;;2.78;;
8708;SDS011;4391;48.678;9.280;2023-03-31T05:23:54;9.10;;;2.60;;
8708;SDS011;4391;48.678;9.280;2023-03-31T05:26:21;9.65;;;3.28;;
8708;SDS011;4391;48.678;9.280;2023-03-31T05:28:49;11.97;;;2.53;;
8708;SDS011;4391;48.678;9.280;2023-03-31T05:31:16;5.90;;;2.60;;
8708;SDS011;4391;48.678;9.280;2023-03-31T05:33:45;10.90;;;3.40;;
8708;SDS011;4391;48.678;9.280;2023-03-31T05:36:13;7.45;;;2.88;;
8708;SDS011;4391;48.678;9.280;2023-03-31T05:38:41;7.38;;;2.78;;
8708;SDS011;4391;48.678;9.280;2023-03-31T05:41:08;9.17;;;3.13;;
8708;SDS011;4391;48.678;9.280;2023-03-31T05:43:36;8.85;;;3.42;;
8708;SDS011;4391;48.678;9.280;2023-03-31T05:46:04;9.07;;;3.40;;
8708;SDS011;4391;48.678;9.280;2023-03-31T05:48:31;8.43;;;3.17;;
8708;SDS011;4391;48.678;9.280;2023-03-31T05:50:59;9.18;;;2.88;;
8708;SDS011;4391;48.678;9.280;2023-03-31T05:53:27;13.30;;;3.17;;
8708;SDS011;4391;48.678;9.280;2023-03-31T05:55:58;7.97;;;3.00;;
8708;SDS011;4391;48.678;9.280;2023-03-31T05:58:26;10.07;;;3.60;;
8708;SDS011;4391;48.678;9.280;2023-03-31T06:00:59;12.80;;;4.10;;
8708;SDS011;4391;48.678;9.280;2023-03-31T06:03:27;15.15;;;3.88;;
8708;SDS011;4391;48.678;9.280;2023-03-31T06:05:53;11.67;;;3.57;;
8708;SDS011;4391;48.678;9.280;2023-03-31T06:08:22;13.85;;;3.45;;
8708;SDS011;4391;48.678;9.280;2023-03-31T06:10:49;9.98;;;3.10;;
8708;SDS011;4391;48.678;9.280;2023-03-31T06:13:16;12.15;;;4.18;;
8708;SDS011;4391;48.678;9.280;2023-03-31T06:15:42;12.07;;;4.35;;
8708;SDS011;4391;48.678;9.280;2023-03-31T06:18:17;10.60;;;4.20;;
8708;SDS011;4391;48.678;9.280;2023-03-31T06:20:44;13.55;;;4.30;;
8708;SDS011;4391;48.678;9.280;2023-03-31T06:23:11;8.20;;;3.63;;
8708;SDS011;4391;48.678;9.280;2023-03-31T06:25:39;10.35;;;3.90;;
8708;SDS011;4391;48.678;9.280;2023-03-31T06:28:06;12.00;;;4.40;;
8708;SDS011;4391;48.678;9.280;2023-03-31T06:30:32;11.47;;;4.37;;
8708;SDS011;4391;48.678;9.280;2023-03-31T06:32:59;10.88;;;4.35;;
8708;SDS011;4391;48.678;9.280;2023-03-31T06:35:26;10.68;;;3.90;;
8708;SDS011;4391;48.678;9.280;2023-03-31T06:37:53;9.93;;;4.20;;
8708;SDS011;4391;48.678;9.280;2023-03-31T06:40:20;13.57;;;4.35;;
8708;SDS011;4391;48.678;9.280;2023-03-31T06:42:48;12.87;;;3.73;;
8708;SDS011;4391;48.678;9.280;2023-03-31T06:45:15;14.55;;;4.50;;
8708;SDS011;4391;48.678;9.280;2023-03-31T06:47:42;14.18;;;4.43;;
8708;SDS011;4391;48.678;9.280;2023-03-31T06:50:09;10.65;;;5.05;;
8708;SDS011;4391;48.678;9.280;2023-03-31T06:52:36;16.52;;;5.82;;
8708;SDS011;4391;48.678;9.280;2023-03-31T06:55:05;13.47;;;5.13;;
8708;SDS011;4391;48.678;9.280;2023-03-31T06:57:33;13.05;;;4.50;;
8708;SDS011;4391;48.678;9.280;2023-03-31T07:00:02;12.25;;;4.90;;
8708;SDS011;4391;48.678;9.280;2023-03-31T07:02:31;16.65;;;5.43;;
8708;SDS011;4391;48.678;9.280;2023-03-31T07:04:58;10.77;;;5.05;;
8708;SDS011;4391;48.678;9.280;2023-03-31T07:07:25;9.40;;;4.33;;
8708;SDS011;4391;48.678;9.280;2023-03-31T07:09:52;11.52;;;4.40;;
8708;SDS011;4391;48.678;9.280;2023-03-31T07:12:19;11.82;;;4.57;;
8708;SDS011;4391;48.678;9.280;2023-03-31T07:14:46;7.95;;;3.63;;
8708;SDS011;4391;48.678;9.280;2023-03-31T07:17:14;9.57;;;4.03;;
8708;SDS011;4391;48.678;9.280;2023-03-31T07:19:41;10.53;;;2.93;;
8708;SDS011;4391;48.678;9.280;2023-03-31T07:22:11;7.95;;;2.70;;
8708;SDS011;4391;48.678;9.280;2023-03-31T07:24:38;8.85;;;2.90;;
8708;SDS011;4391;48.678;9.280;2023-03-31T07:27:05;5.70;;;2.05;;
8708;SDS011;4391;48.678;9.280;2023-03-31T07:29:32;5.80;;;2.17;;
8708;SDS011;4391;48.678;9.280;2023-03-31T07:31:59;7.63;;;1.80;;
8708;SDS011;4391;48.678;9.280;2023-03-31T07:34:27;5.65;;;1.60;;
8708;SDS011;4391;48.678;9.280;2023-03-31T07:36:54;4.68;;;1.10;;
8708;SDS011;4391;48.678;9.280;2023-03-31T07:41:56;5.28;;;1.23;;
8708;SDS011;4391;48.678;9.280;2023-03-31T07:44:23;2.80;;;0.83;;
8708;SDS011;4391;48.678;9.280;2023-03-31T07:46:50;3.50;;;1.00;;
8708;SDS011;4391;48.678;9.280;2023-03-31T07:49:17;3.08;;;1.08;;
8708;SDS011;4391;48.678;9.280;2023-03-31T07:51:45;3.80;;;0.90;;
8708;SDS011;4391;48.678;9.280;2023-03-31T07:54:12;2.33;;;0.70;;
8708;SDS011;4391;48.678;9.280;2023-03-31T07:56:38;2.17;;;0.90;;
8708;SDS011;4391;48.678;9.280;2023-03-31T07:59:05;2.60;;;0.82;;
8708;SDS011;4391;48.678;9.280;2023-03-31T08:01:32;4.43;;;1.05;;
8708;SDS011;4391;48.678;9.280;2023-03-31T08:03:59;2.45;;;0.82;;
8708;SDS011;4391;48.678;9.280;2023-03-31T08:06:26;4.07;;;1.15;;
8708;SDS011;4391;48.678;9.280;2023-03-31T08:08:55;3.80;;;1.40;;
8708;SDS011;4391;48.678;9.280;2023-03-31T08:11:23;4.25;;;1.40;;
8708;SDS011;4391;48.678;9.280;2023-03-31T08:13:50;5.85;;;1.63;;
8708;SDS011;4391;48.678;9.280;2023-03-31T08:16:17;5.13;;;1.40;;
8708;SDS011;4391;48.678;9.280;2023-03-31T08:18:44;3.22;;;1.10;;
8708;SDS011;4391;48.678;9.280;2023-03-31T08:21:11;4.60;;;1.20;;
8708;SDS011;4391;48.678;9.280;2023-03-31T08:23:38;5.05;;;1.65;;
8708;SDS011;4391;48.678;9.280;2023-03-31T08:26:07;3.75;;;1.20;;
8708;SDS011;4391;48.678;9.280;2023-03-31T08:28:36;4.60;;;1.10;;
8708;SDS011;4391;48.678;9.280;2023-03-31T08:31:03;5.60;;;1.08;;
8708;SDS011;4391;48.678;9.280;2023-03-31T08:33:30;5.97;;;1.07;;
8708;SDS011;4391;48.678;9.280;2023-03-31T08:36:00;4.22;;;1.15;;
8708;SDS011;4391;48.678;9.280;2023-03-31T08:38:28;4.25;;;1.13;;
8708;SDS011;4391;48.678;9.280;2023-03-31T08:40:58;3.75;;;0.95;;
8708;SDS011;4391;48.678;9.280;2023-03-31T08:43:28;2.85;;;0.80;;
8708;SDS011;4391;48.678;9.280;2023-03-31T08:45:58;3.23;;;0.67;;
8708;SDS011;4391;48.678;9.280;2023-03-31T08:48:28;3.05;;;0.73;;
8708;SDS011;4391;48.678;9.280;2023-03-31T08:50:59;3.83;;;0.70;;
8708;SDS011;4391;48.678;9.280;2023-03-31T08:53:30;2.92;;;0.80;;
8708;SDS011;4391;48.678;9.280;2023-03-31T08:56:01;2.38;;;0.70;;
8708;SDS011;4391;48.678;9.280;2023-03-31T08:58:34;3.57;;;0.80;;
8708;SDS011;4391;48.678;9.280;2023-03-31T09:01:07;2.22;;;0.65;;
8708;SDS011;4391;48.678;9.280;2023-03-31T09:03:45;2.95;;;0.80;;
8708;SDS011;4391;48.678;9.280;2023-03-31T09:06:23;3.05;;;0.70;;
8708;SDS011;4391;48.678;9.280;2023-03-31T09:08:58;3.13;;;0.70;;
8708;SDS011;4391;48.678;9.280;2023-03-31T09:11:29;2.87;;;0.70;;
8708;SDS011;4391;48.678;9.280;2023-03-31T09:14:11;1.45;;;0.52;;
8708;SDS011;4391;48.678;9.280;2023-03-31T09:16:47;2.55;;;0.70;;
8708;SDS011;4391;48.678;9.280;2023-03-31T09:19:20;2.55;;;0.60;;
8708;SDS011;4391;48.678;9.280;2023-03-31T09:21:55;3.10;;;0.60;;
8708;SDS011;4391;48.678;9.280;2023-03-31T09:24:26;5.10;;;1.50;;
8708;SDS011;4391;48.678;9.280;2023-03-31T09:26:57;3.75;;;0.60;;
8708;SDS011;4391;48.678;9.280;2023-03-31T09:29:29;2.05;;;0.50;;
8708;SDS011;4391;48.678;9.280;2023-03-31T09:32:05;3.20;;;0.80;;
8708;SDS011;4391;48.678;9.280;2023-03-31T09:34:39;6.60;;;1.05;;
8708;SDS011;4391;48.678;9.280;2023-03-31T09:37:07;6.47;;;1.13;;
8708;SDS011;4391;48.678;9.280;2023-03-31T09:39:34;2.17;;;0.50;;
8708;SDS011;4391;48.678;9.280;2023-03-31T09:42:02;4.35;;;1.05;;
8708;SDS011;4391;48.678;9.280;2023-03-31T09:44:33;6.25;;;1.45;;
8708;SDS011;4391;48.678;9.280;2023-03-31T09:47:03;4.10;;;0.90;;
8708;SDS011;4391;48.678;9.280;2023-03-31T09:49:33;8.40;;;1.40;;
8708;SDS011;4391;48.678;9.280;2023-03-31T09:52:03;8.98;;;1.75;;
8708;SDS011;4391;48.678;9.280;2023-03-31T09:54:33;6.00;;;1.25;;
8708;SDS011;4391;48.678;9.280;2023-03-31T09:57:11;12.98;;;2.60;;
8708;SDS011;4391;48.678;9.280;2023-03-31T09:59:41;21.70;;;3.83;;
8708;SDS011;4391;48.678;9.280;2023-03-31T10:02:28;8.27;;;1.60;;
8708;SDS011;4391;48.678;9.280;2023-03-31T10:05:00;4.43;;;0.90;;
8708;SDS011;4391;48.678;9.280;2023-03-31T10:07:28;5.53;;;0.98;;
8708;SDS011;4391;48.678;9.280;2023-03-31T10:09:55;4.13;;;0.80;;
8708;SDS011;4391;48.678;9.280;2023-03-31T10:12:23;6.10;;;0.80;;
8708;SDS011;4391;48.678;9.280;2023-03-31T10:15:17;7.43;;;1.87;;
8708;SDS011;4391;48.678;9.280;2023-03-31T10:17:44;6.40;;;0.82;;
8708;SDS011;4391;48.678;9.280;2023-03-31T10:20:20;3.67;;;0.70;;
8708;SDS011;4391;48.678;9.280;2023-03-31T10:22:58;8.23;;;0.77;;
8708;SDS011;4391;48.678;9.280;2023-03-31T10:25:28;4.93;;;1.25;;
8708;SDS011;4391;48.678;9.280;2023-03-31T10:27:56;4.53;;;1.00;;
8708;SDS011;4391;48.678;9.280;2023-03-31T10:30:29;7.18;;;1.63;;
8708;SDS011;4391;48.678;9.280;2023-03-31T10:33:04;7.75;;;1.65;;
8708;SDS011;4391;48.678;9.280;2023-03-31T10:35:32;4.25;;;0.90;;
8708;SDS011;4391;48.678;9.280;2023-03-31T10:38:02;20.27;;;4.10;;
8708;SDS011;4391;48.678;9.280;2023-03-31T10:40:32;5.67;;;1.00;;
8708;SDS011;4391;48.678;9.280;2023-03-31T10:43:01;3.40;;;0.88;;
8708;SDS011;4391;48.678;9.280;2023-03-31T10:45:35;6.78;;;1.30;;
8708;SDS011;4391;48.678;9.280;2023-03-31T10:48:03;5.80;;;1.17;;
8708;SDS011;4391;48.678;9.280;2023-03-31T10:50:32;8.93;;;2.08;;
8708;SDS011;4391;48.678;9.280;2023-03-31T10:53:02;6.77;;;1.53;;
8708;SDS011;4391;48.678;9.280;2023-03-31T10:55:34;6.82;;;1.40;;
8708;SDS011;4391;48.678;9.280;2023-03-31T10:58:08;19.90;;;4.13;;
8708;SDS011;4391;48.678;9.280;2023-03-31T11:00:48;6.43;;;1.30;;
8708;SDS011;4391;48.678;9.280;2023-03-31T11:03:33;6.03;;;1.50;;
8708;SDS011;4391;48.678;9.280;2023-03-31T11:06:15;10.80;;;1.33;;
8708;SDS011;4391;48.678;9.280;2023-03-31T11:08:52;4.78;;;1.15;;
8708;SDS011;4391;48.678;9.280;2023-03-31T11:11:31;8.73;;;1.95;;
8708;SDS011;4391;48.678;9.280;2023-03-31T11:14:14;8.43;;;1.63;;
8708;SDS011;4391;48.678;9.280;2023-03-31T11:16:51;8.55;;;1.58;;
8708;SDS011;4391;48.678;9.280;2023-03-31T11:19:28;8.77;;;0.93;;
8708;SDS011;4391;48.678;9.280;2023-03-31T11:22:04;2.80;;;0.55;;
8708;SDS011;4391;48.678;9.280;2023-03-31T11:24:44;7.10;;;0.77;;
8708;SDS011;4391;48.678;9.280;2023-03-31T11:27:29;4.03;;;0.65;;
8708;SDS011;4391;48.678;9.280;2023-03-31T11:30:03;5.53;;;0.82;;
8708;SDS011;4391;48.678;9.280;2023-03-31T11:32:46;3.60;;;0.63;;
8708;SDS011;4391;48.678;9.280;2023-03-31T11:35:28;3.88;;;0.60;;
8708;SDS011;4391;48.678;9.280;2023-03-31T11:41:00;3.95;;;0.50;;
8708;SDS011;4391;48.678;9.280;2023-03-31T11:43:31;2.20;;;0.50;;
8708;SDS011;4391;48.678;9.280;2023-03-31T11:46:02;1.90;;;0.37;;
8708;SDS011;4391;48.678;9.280;2023-03-31T11:48:37;3.60;;;0.60;;
8708;SDS011;4391;48.678;9.280;2023-03-31T11:51:08;3.85;;;0.73;;
8708;SDS011;4391;48.678;9.280;2023-03-31T11:53:39;11.93;;;1.90;;
8708;SDS011;4391;48.678;9.280;2023-03-31T11:56:10;1.30;;;0.47;;
8708;SDS011;4391;48.678;9.280;2023-03-31T11:58:39;3.57;;;0.40;;
8708;SDS011;4391;48.678;9.280;2023-03-31T12:01:13;2.08;;;0.40;;
8708;SDS011;4391;48.678;9.280;2023-03-31T12:03:49;9.07;;;0.93;;
8708;SDS011;4391;48.678;9.280;2023-03-31T12:06:21;4.05;;;0.68;;
8708;SDS011;4391;48.678;9.280;2023-03-31T12:09:00;4.30;;;1.00;;
8708;SDS011;4391;48.678;9.280;2023-03-31T12:11:35;3.10;;;0.63;;
8708;SDS011;4391;48.678;9.280;2023-03-31T12:14:20;4.72;;;1.40;;
8708;SDS011;4391;48.678;9.280;2023-03-31T12:16:53;5.47;;;0.73;;
8708;SDS011;4391;48.678;9.280;2023-03-31T12:19:25;4.00;;;0.63;;
8708;SDS011;4391;48.678;9.280;2023-03-31T12:21:55;6.25;;;1.67;;
8708;SDS011;4391;48.678;9.280;2023-03-31T12:24:29;0.83;;;0.30;;
8708;SDS011;4391;48.678;9.280;2023-03-31T12:27:00;8.85;;;1.05;;
8708;SDS011;4391;48.678;9.280;2023-03-31T12:29:33;3.67;;;0.73;;
8708;SDS011;4391;48.678;9.280;2023-03-31T12:32:03;3.13;;;0.80;;
8708;SDS011;4391;48.678;9.280;2023-03-31T12:34:37;4.45;;;0.85;;
8708;SDS011;4391;48.678;9.280;2023-03-31T12:37:21;9.73;;;1.90;;
8708;SDS011;4391;48.678;9.280;2023-03-31T12:40:12;1.85;;;0.70;;
8708;SDS011;4391;48.678;9.280;2023-03-31T12:45:46;6.25;;;1.05;;
8708;SDS011;4391;48.678;9.280;2023-03-31T12:51:19;3.73;;;0.70;;
8708;SDS011;4391;48.678;9.280;2023-03-31T12:54:02;4.45;;;0.77;;
8708;SDS011;4391;48.678;9.280;2023-03-31T12:59:31;5.90;;;1.13;;
8708;SDS011;4391;48.678;9.280;2023-03-31T13:02:10;9.35;;;1.33;;
8708;SDS011;4391;48.678;9.280;2023-03-31T13:04:46;1.70;;;0.50;;
8708;SDS011;4391;48.678;9.280;2023-03-31T13:12:57;13.23;;;2.35;;
8708;SDS011;4391;48.678;9.280;2023-03-31T13:15:29;5.38;;;0.80;;
8708;SDS011;4391;48.678;9.280;2023-03-31T13:17:57;5.33;;;0.90;;
8708;SDS011;4391;48.678;9.280;2023-03-31T13:20:29;10.43;;;2.45;;
8708;SDS011;4391;48.678;9.280;2023-03-31T13:23:03;15.10;;;2.28;;
8708;SDS011;4391;48.678;9.280;2023-03-31T13:28:23;14.38;;;2.72;;
8708;SDS011;4391;48.678;9.280;2023-03-31T13:30:52;10.90;;;2.63;;
8708;SDS011;4391;48.678;9.280;2023-03-31T13:33:26;9.40;;;1.80;;
8708;SDS011;4391;48.678;9.280;2023-03-31T13:36:06;9.27;;;2.13;;
8708;SDS011;4391;48.678;9.280;2023-03-31T13:38:55;3.60;;;0.80;;
8708;SDS011;4391;48.678;9.280;2023-03-31T13:44:16;5.97;;;1.27;;
8708;SDS011;4391;48.678;9.280;2023-03-31T13:47:18;4.93;;;1.15;;
8708;SDS011;4391;48.678;9.280;2023-03-31T13:50:08;6.40;;;1.10;;
8708;SDS011;4391;48.678;9.280;2023-03-31T13:52:46;1.67;;;0.38;;
8708;SDS011;4391;48.678;9.280;2023-03-31T13:55:37;2.10;;;0.68;;
8708;SDS011;4391;48.678;9.280;2023-03-31T13:58:35;2.50;;;0.20;;
8708;SDS011;4391;48.678;9.280;2023-03-31T14:01:28;2.30;;;0.65;;
8708;SDS011;4391;48.678;9.280;2023-03-31T14:04:11;3.10;;;0.40;;
8708;SDS011;4391;48.678;9.280;2023-03-31T14:06:51;4.28;;;0.40;;
8708;SDS011;4391;48.678;9.280;2023-03-31T14:09:22;1.58;;;0.40;;
8708;SDS011;4391;48.678;9.280;2023-03-31T14:11:55;1.17;;;0.27;;
8708;SDS011;4391;48.678;9.280;2023-03-31T14:14:23;1.25;;;0.40;;
8708;SDS011;4391;48.678;9.280;2023-03-31T14:16:51;1.50;;;0.40;;
8708;SDS011;4391;48.678;9.280;2023-03-31T14:19:28;1.70;;;0.30;;
8708;SDS011;4391;48.678;9.280;2023-03-31T14:22:19;1.67;;;0.32;;
8708;SDS011;4391;48.678;9.280;2023-03-31T14:24:54;2.47;;;0.40;;
8708;SDS011;4391;48.678;9.280;2023-03-31T14:27:36;1.33;;;0.40;;
8708;SDS011;4391;48.678;9.280;2023-03-31T14:30:13;1.50;;;0.30;;
8708;SDS011;4391;48.678;9.280;2023-03-31T14:32:50;1.90;;;0.57;;
8708;SDS011;4391;48.678;9.280;2023-03-31T14:35:28;1.23;;;0.50;;
8708;SDS011;4391;48.678;9.280;2023-03-31T14:38:02;1.63;;;0.30;;
8708;SDS011;4391;48.678;9.280;2023-03-31T14:40:36;2.63;;;0.60;;
8708;SDS011;4391;48.678;9.280;2023-03-31T14:43:17;2.22;;;0.60;;
8708;SDS011;4391;48.678;9.280;2023-03-31T14:45:46;1.50;;;0.40;;
8708;SDS011;4391;48.678;9.280;2023-03-31T14:48:17;1.52;;;0.50;;
8708;SDS011;4391;48.678;9.280;2023-03-31T14:50:45;3.90;;;0.87;;
8708;SDS011;4391;48.678;9.280;2023-03-31T14:53:13;4.38;;;0.98;;
8708;SDS011;4391;48.678;9.280;2023-03-31T14:55:40;8.80;;;1.52;;
8708;SDS011;4391;48.678;9.280;2023-03-31T14:58:10;3.65;;;0.60;;
8708;SDS011;4391;48.678;9.280;2023-03-31T15:00:41;7.38;;;1.30;;
8708;SDS011;4391;48.678;9.280;2023-03-31T15:03:11;4.20;;;0.60;;
8708;SDS011;4391;48.678;9.280;2023-03-31T15:05:41;3.10;;;0.50;;
8708;SDS011;4391;48.678;9.280;2023-03-31T15:08:10;8.00;;;1.10;;
8708;SDS011;4391;48.678;9.280;2023-03-31T15:10:42;4.75;;;0.75;;
8708;SDS011;4391;48.678;9.280;2023-03-31T15:13:15;6.38;;;1.52;;
8708;SDS011;4391;48.678;9.280;2023-03-31T15:15:46;3.17;;;0.40;;
8708;SDS011;4391;48.678;9.280;2023-03-31T15:18:14;7.55;;;1.95;;
8708;SDS011;4391;48.678;9.280;2023-03-31T15:20:42;4.22;;;1.10;;
8708;SDS011;4391;48.678;9.280;2023-03-31T15:23:18;4.72;;;0.80;;
8708;SDS011;4391;48.678;9.280;2023-03-31T15:25:48;8.80;;;1.45;;
8708;SDS011;4391;48.678;9.280;2023-03-31T15:28:17;4.33;;;1.23;;
8708;SDS011;4391;48.678;9.280;2023-03-31T15:30:47;3.00;;;0.60;;
8708;SDS011;4391;48.678;9.280;2023-03-31T15:33:16;4.72;;;0.95;;
8708;SDS011;4391;48.678;9.280;2023-03-31T15:35:46;3.45;;;0.80;;
8708;SDS011;4391;48.678;9.280;2023-03-31T15:38:13;6.72;;;1.17;;
8708;SDS011;4391;48.678;9.280;2023-03-31T15:40:42;4.07;;;0.53;;
8708;SDS011;4391;48.678;9.280;2023-03-31T15:43:12;13.82;;;1.80;;
8708;SDS011;4391;48.678;9.280;2023-03-31T15:45:45;3.85;;;0.65;;
8708;SDS011;4391;48.678;9.280;2023-03-31T15:48:19;3.95;;;0.93;;
8708;SDS011;4391;48.678;9.280;2023-03-31T15:50:48;6.25;;;1.15;;
8708;SDS011;4391;48.678;9.280;2023-03-31T15:56:01;6.18;;;1.08;;
8708;SDS011;4391;48.678;9.280;2023-03-31T16:01:21;7.75;;;1.70;;
8708;SDS011;4391;48.678;9.280;2023-03-31T16:03:51;5.90;;;1.27;;
8708;SDS011;4391;48.678;9.280;2023-03-31T16:06:20;2.40;;;0.57;;
8708;SDS011;4391;48.678;9.280;2023-03-31T16:08:55;6.50;;;1.15;;
8708;SDS011;4391;48.678;9.280;2023-03-31T16:11:26;4.45;;;0.82;;
8708;SDS011;4391;48.678;9.280;2023-03-31T16:13:59;11.82;;;2.10;;
8708;SDS011;4391;48.678;9.280;2023-03-31T16:16:32;6.25;;;1.42;;
8708;SDS011;4391;48.678;9.280;2023-03-31T16:19:00;11.10;;;1.90;;
8708;SDS011;4391;48.678;9.280;2023-03-31T16:21:32;8.30;;;1.52;;